Chinley, United Kingdom
Current Conditions -  °F | °C
As of 11:50 AM on Saturday 22 Nov 2014 (Local Time) from EGCC Reporting Station
Scattered Clouds Scattered Clouds  
Wind Chill: 13°   Ceiling: Unl
Heat Index: 13°   Visibility: 6mi
Dew Point: 13°   Wind: 8mph
Humidity: 100%   Direction: 230°SW
Pressure: 29.83"   Gusts: NA
Location:  53.34°N, 1.94°W
Report Text: EGCC 221150Z 23007KT 9999 SCT010 SCT020 13/13 Q1010
Loading
Personal Weather Stations






























Interactive Weather Map New forecast layout! Learn more

10-Day Weather Forecast

Advertisements
Track Severe Weather on mobile